logo
Search for airport 
image banner adimage banner adimage banner ad
image banner ad

CA310 - Woss (Cak4)

Located in , Canada

ICAO - , IATA -

Data provided by Airmate  

General information

Coordinates: N50°12'59" W126°37'5"
Elevation is 474 feet MSL.
 
View others Airports in British Columbia

Operational data

Special qualification required
Current time UTC:
Current local time:
Weather at : CYZT - Port Hardy ( 74 km )
METAR: CYZT 171205Z 18003KT 1/4SM -DZ FG VV002 12/12 A2998 RMK FG8 SLP153
TAF: TAF CYZT 170641Z 1707/1719 VRB03KT P6SM SKC FM170900 VRB03KT P6SM FEW002 TEMPO 1709/1711 1/2SM FG VV002 FM171100 VRB03KT 1/2SM FG VV002 TEMPO 1711/1716 1/8SM -DZ FG FM171600 08005KT 2SM BR BKN005 TEMPO 1716/1718 3/4SM BR VV003 BECMG 1718/1719 P6SM NSW SKC RMK NXT FCST BY 171300Z
View NOTAMs / SUP AIP / TFR affecting this airport [VIEW]
Communications frequencies: [VIEW]

Runways:

Airport contact information

Address: Canada

Satellite view of CA310